Pangborn Memorial Airport Wenatchee US
ICAO: KEAT
IATA: EAT
Category: Medium
Scheduled Services: No

Elevation: 1249 ft
TransAlt. 18000 ft.

Airport Communications:
ASOS:119.925
SEATTLE CNTR:126.1
SEATTLE RDO:122.6
CTAF/UNICOM:123

KEAT Zoom In..

Runways:

(A) RW 07 length 4460 ft width 75 ft
---- / hdg 71

(B) RW 12 length 5700 ft width 150 ft
ILS 109.35 / hdg 116

(C) RW 25 length 4460 ft width 75 ft
---- / hdg 251

(D) RW 30 length 5700 ft width 150 ft
---- / hdg 296

Location; KEAT
Day. 29 / Time. 21.55 Zulu
* Altimeter: 29.83
* Temperature: 32° c. 89.6°f.
* Wind from: 090° Speed 05 kn.
Dewpoint: 05° c.
Visibility: 10 Statute Miles.
Clouds: Clear (automated report).

KEAT 292155Z AUTO 09005KT 10SM CLR 32/05 A2983 RMK AO2 SLP092 T03220050


Wind From 090°
Speed 05 kn.

 
 
jpsmedia worldairports.se 2020   terms of use